sensor_id;sensor_type;location;lat;lon;timestamp;P1;durP1;ratioP1;P2;durP2;ratioP2
19897;SDS011;10111;50.814;4.572;2023-07-31T00:00:48;12.73;;;4.50;;
19897;SDS011;10111;50.814;4.572;2023-07-31T00:03:14;10.17;;;4.63;;
19897;SDS011;10111;50.814;4.572;2023-07-31T00:05:39;14.30;;;5.00;;
19897;SDS011;10111;50.814;4.572;2023-07-31T00:08:05;11.57;;;4.70;;
19897;SDS011;10111;50.814;4.572;2023-07-31T00:10:31;11.77;;;4.63;;
19897;SDS011;10111;50.814;4.572;2023-07-31T00:12:56;15.67;;;5.30;;
19897;SDS011;10111;50.814;4.572;2023-07-31T00:15:22;12.07;;;5.50;;
19897;SDS011;10111;50.814;4.572;2023-07-31T00:17:48;10.07;;;4.77;;
19897;SDS011;10111;50.814;4.572;2023-07-31T00:20:13;13.63;;;4.30;;
19897;SDS011;10111;50.814;4.572;2023-07-31T00:22:39;14.50;;;4.63;;
19897;SDS011;10111;50.814;4.572;2023-07-31T00:25:05;9.23;;;5.13;;
19897;SDS011;10111;50.814;4.572;2023-07-31T00:27:31;11.70;;;4.83;;
19897;SDS011;10111;50.814;4.572;2023-07-31T00:29:57;17.77;;;5.17;;
19897;SDS011;10111;50.814;4.572;2023-07-31T00:32:23;11.53;;;5.83;;
19897;SDS011;10111;50.814;4.572;2023-07-31T00:34:48;10.10;;;4.20;;
19897;SDS011;10111;50.814;4.572;2023-07-31T00:37:14;13.03;;;5.10;;
19897;SDS011;10111;50.814;4.572;2023-07-31T00:39:40;8.53;;;5.30;;
19897;SDS011;10111;50.814;4.572;2023-07-31T00:42:06;9.00;;;4.90;;
19897;SDS011;10111;50.814;4.572;2023-07-31T00:44:32;12.03;;;4.60;;
19897;SDS011;10111;50.814;4.572;2023-07-31T00:46:58;11.60;;;4.63;;
19897;SDS011;10111;50.814;4.572;2023-07-31T00:49:24;12.63;;;4.60;;
19897;SDS011;10111;50.814;4.572;2023-07-31T00:51:51;7.70;;;3.83;;
19897;SDS011;10111;50.814;4.572;2023-07-31T00:54:17;14.73;;;4.90;;
19897;SDS011;10111;50.814;4.572;2023-07-31T00:56:44;9.23;;;4.87;;
19897;SDS011;10111;50.814;4.572;2023-07-31T00:59:11;11.40;;;4.37;;
19897;SDS011;10111;50.814;4.572;2023-07-31T01:01:37;10.63;;;4.27;;
19897;SDS011;10111;50.814;4.572;2023-07-31T01:04:03;8.40;;;3.60;;
19897;SDS011;10111;50.814;4.572;2023-07-31T01:11:43;8.07;;;4.10;;
19897;SDS011;10111;50.814;4.572;2023-07-31T01:14:17;10.10;;;5.20;;
19897;SDS011;10111;50.814;4.572;2023-07-31T01:16:43;11.07;;;5.63;;
19897;SDS011;10111;50.814;4.572;2023-07-31T01:19:08;9.10;;;4.17;;
19897;SDS011;10111;50.814;4.572;2023-07-31T01:26:49;9.30;;;4.57;;
19897;SDS011;10111;50.814;4.572;2023-07-31T01:29:34;10.77;;;4.20;;
19897;SDS011;10111;50.814;4.572;2023-07-31T01:32:05;9.67;;;4.97;;
19897;SDS011;10111;50.814;4.572;2023-07-31T01:34:33;8.67;;;3.97;;
19897;SDS011;10111;50.814;4.572;2023-07-31T01:37:00;10.00;;;4.73;;
19897;SDS011;10111;50.814;4.572;2023-07-31T01:39:26;14.30;;;4.73;;
19897;SDS011;10111;50.814;4.572;2023-07-31T01:41:51;8.63;;;4.13;;
19897;SDS011;10111;50.814;4.572;2023-07-31T01:44:17;10.40;;;4.70;;
19897;SDS011;10111;50.814;4.572;2023-07-31T01:46:43;11.67;;;4.60;;
19897;SDS011;10111;50.814;4.572;2023-07-31T01:49:08;10.93;;;5.43;;
19897;SDS011;10111;50.814;4.572;2023-07-31T01:51:34;9.30;;;4.50;;
19897;SDS011;10111;50.814;4.572;2023-07-31T01:54:00;12.70;;;5.13;;
19897;SDS011;10111;50.814;4.572;2023-07-31T01:56:26;10.83;;;5.80;;
19897;SDS011;10111;50.814;4.572;2023-07-31T01:58:52;11.73;;;5.13;;
19897;SDS011;10111;50.814;4.572;2023-07-31T02:01:18;8.40;;;5.23;;
19897;SDS011;10111;50.814;4.572;2023-07-31T02:03:44;11.80;;;5.33;;
19897;SDS011;10111;50.814;4.572;2023-07-31T02:06:09;11.47;;;5.30;;
19897;SDS011;10111;50.814;4.572;2023-07-31T02:08:35;11.57;;;4.60;;
19897;SDS011;10111;50.814;4.572;2023-07-31T02:11:01;11.63;;;5.63;;
19897;SDS011;10111;50.814;4.572;2023-07-31T02:13:26;11.30;;;5.63;;
19897;SDS011;10111;50.814;4.572;2023-07-31T02:15:52;11.23;;;6.20;;
19897;SDS011;10111;50.814;4.572;2023-07-31T02:18:18;9.03;;;5.27;;
19897;SDS011;10111;50.814;4.572;2023-07-31T02:20:48;11.47;;;6.17;;
19897;SDS011;10111;50.814;4.572;2023-07-31T02:23:20;10.50;;;5.50;;
19897;SDS011;10111;50.814;4.572;2023-07-31T02:25:46;12.43;;;4.93;;
19897;SDS011;10111;50.814;4.572;2023-07-31T02:28:12;11.30;;;5.10;;
19897;SDS011;10111;50.814;4.572;2023-07-31T02:30:38;10.97;;;5.63;;
19897;SDS011;10111;50.814;4.572;2023-07-31T02:33:04;10.47;;;5.07;;
19897;SDS011;10111;50.814;4.572;2023-07-31T02:35:30;9.77;;;5.87;;
19897;SDS011;10111;50.814;4.572;2023-07-31T02:37:56;11.67;;;4.70;;
19897;SDS011;10111;50.814;4.572;2023-07-31T02:40:22;15.37;;;5.50;;
19897;SDS011;10111;50.814;4.572;2023-07-31T02:42:48;7.10;;;4.37;;
19897;SDS011;10111;50.814;4.572;2023-07-31T02:45:14;7.90;;;4.77;;
19897;SDS011;10111;50.814;4.572;2023-07-31T02:47:39;10.03;;;5.07;;
19897;SDS011;10111;50.814;4.572;2023-07-31T02:50:05;9.13;;;4.70;;
19897;SDS011;10111;50.814;4.572;2023-07-31T02:52:31;9.53;;;4.53;;
19897;SDS011;10111;50.814;4.572;2023-07-31T02:54:57;8.37;;;5.13;;
19897;SDS011;10111;50.814;4.572;2023-07-31T02:57:23;7.60;;;4.87;;
19897;SDS011;10111;50.814;4.572;2023-07-31T02:59:49;6.07;;;3.67;;
19897;SDS011;10111;50.814;4.572;2023-07-31T03:02:14;11.73;;;4.30;;
19897;SDS011;10111;50.814;4.572;2023-07-31T03:04:40;5.47;;;4.17;;
19897;SDS011;10111;50.814;4.572;2023-07-31T03:07:06;5.90;;;4.40;;
19897;SDS011;10111;50.814;4.572;2023-07-31T03:09:31;9.00;;;4.10;;
19897;SDS011;10111;50.814;4.572;2023-07-31T03:11:57;11.83;;;4.33;;
19897;SDS011;10111;50.814;4.572;2023-07-31T03:14:23;11.60;;;4.60;;
19897;SDS011;10111;50.814;4.572;2023-07-31T03:16:51;9.50;;;5.97;;
19897;SDS011;10111;50.814;4.572;2023-07-31T03:19:17;6.17;;;4.40;;
19897;SDS011;10111;50.814;4.572;2023-07-31T03:21:42;5.63;;;4.03;;
19897;SDS011;10111;50.814;4.572;2023-07-31T03:24:08;8.50;;;4.17;;
19897;SDS011;10111;50.814;4.572;2023-07-31T03:26:33;6.23;;;3.90;;
19897;SDS011;10111;50.814;4.572;2023-07-31T03:29:00;8.53;;;4.70;;
19897;SDS011;10111;50.814;4.572;2023-07-31T03:31:25;5.60;;;3.60;;
19897;SDS011;10111;50.814;4.572;2023-07-31T03:33:51;8.63;;;3.63;;
19897;SDS011;10111;50.814;4.572;2023-07-31T03:36:17;7.23;;;4.23;;
19897;SDS011;10111;50.814;4.572;2023-07-31T03:38:42;7.80;;;4.73;;
19897;SDS011;10111;50.814;4.572;2023-07-31T03:41:08;7.93;;;4.27;;
19897;SDS011;10111;50.814;4.572;2023-07-31T03:43:35;6.90;;;3.77;;
19897;SDS011;10111;50.814;4.572;2023-07-31T03:46:01;12.90;;;4.13;;
19897;SDS011;10111;50.814;4.572;2023-07-31T03:48:27;6.73;;;5.03;;
19897;SDS011;10111;50.814;4.572;2023-07-31T03:50:53;6.60;;;3.93;;
19897;SDS011;10111;50.814;4.572;2023-07-31T03:53:19;5.93;;;4.13;;
19897;SDS011;10111;50.814;4.572;2023-07-31T03:55:44;8.73;;;3.93;;
19897;SDS011;10111;50.814;4.572;2023-07-31T03:58:10;6.93;;;4.20;;
19897;SDS011;10111;50.814;4.572;2023-07-31T04:00:36;8.47;;;3.83;;
19897;SDS011;10111;50.814;4.572;2023-07-31T04:03:01;9.33;;;4.60;;
19897;SDS011;10111;50.814;4.572;2023-07-31T04:05:29;8.40;;;4.33;;
19897;SDS011;10111;50.814;4.572;2023-07-31T04:07:55;6.93;;;3.97;;
19897;SDS011;10111;50.814;4.572;2023-07-31T04:10:21;5.30;;;3.87;;
19897;SDS011;10111;50.814;4.572;2023-07-31T04:12:46;7.83;;;4.27;;
19897;SDS011;10111;50.814;4.572;2023-07-31T04:15:12;5.43;;;3.80;;
19897;SDS011;10111;50.814;4.572;2023-07-31T04:17:38;6.67;;;3.97;;
19897;SDS011;10111;50.814;4.572;2023-07-31T04:20:03;11.50;;;3.97;;
19897;SDS011;10111;50.814;4.572;2023-07-31T04:22:29;7.93;;;4.70;;
19897;SDS011;10111;50.814;4.572;2023-07-31T04:24:55;6.67;;;4.67;;
19897;SDS011;10111;50.814;4.572;2023-07-31T04:27:21;10.00;;;4.30;;
19897;SDS011;10111;50.814;4.572;2023-07-31T04:29:46;7.10;;;3.90;;
19897;SDS011;10111;50.814;4.572;2023-07-31T04:32:12;5.90;;;4.63;;
19897;SDS011;10111;50.814;4.572;2023-07-31T04:34:40;7.73;;;4.77;;
19897;SDS011;10111;50.814;4.572;2023-07-31T04:37:06;7.93;;;4.23;;
19897;SDS011;10111;50.814;4.572;2023-07-31T04:39:32;5.60;;;3.43;;
19897;SDS011;10111;50.814;4.572;2023-07-31T04:41:57;6.47;;;4.07;;
19897;SDS011;10111;50.814;4.572;2023-07-31T04:44:23;7.13;;;3.43;;
19897;SDS011;10111;50.814;4.572;2023-07-31T04:46:48;7.90;;;3.93;;
19897;SDS011;10111;50.814;4.572;2023-07-31T04:49:14;7.23;;;3.93;;
19897;SDS011;10111;50.814;4.572;2023-07-31T04:51:40;6.37;;;4.27;;
19897;SDS011;10111;50.814;4.572;2023-07-31T04:54:05;7.43;;;3.77;;
19897;SDS011;10111;50.814;4.572;2023-07-31T04:56:31;7.63;;;4.37;;
19897;SDS011;10111;50.814;4.572;2023-07-31T04:58:56;10.53;;;4.07;;
19897;SDS011;10111;50.814;4.572;2023-07-31T05:01:22;10.40;;;4.87;;
19897;SDS011;10111;50.814;4.572;2023-07-31T05:03:48;6.93;;;3.80;;
19897;SDS011;10111;50.814;4.572;2023-07-31T05:06:13;5.37;;;3.57;;
19897;SDS011;10111;50.814;4.572;2023-07-31T05:08:40;6.63;;;4.27;;
19897;SDS011;10111;50.814;4.572;2023-07-31T05:11:06;6.40;;;4.53;;
19897;SDS011;10111;50.814;4.572;2023-07-31T05:13:31;7.03;;;3.63;;
19897;SDS011;10111;50.814;4.572;2023-07-31T05:15:57;7.30;;;4.00;;
19897;SDS011;10111;50.814;4.572;2023-07-31T05:18:22;6.43;;;4.33;;
19897;SDS011;10111;50.814;4.572;2023-07-31T05:20:48;10.23;;;5.07;;
19897;SDS011;10111;50.814;4.572;2023-07-31T05:23:14;7.57;;;3.70;;
19897;SDS011;10111;50.814;4.572;2023-07-31T05:25:39;5.13;;;3.50;;
19897;SDS011;10111;50.814;4.572;2023-07-31T05:28:05;9.87;;;4.63;;
19897;SDS011;10111;50.814;4.572;2023-07-31T05:30:31;7.70;;;4.60;;
19897;SDS011;10111;50.814;4.572;2023-07-31T05:32:56;5.13;;;3.00;;
19897;SDS011;10111;50.814;4.572;2023-07-31T05:35:22;7.70;;;4.90;;
19897;SDS011;10111;50.814;4.572;2023-07-31T05:37:48;5.60;;;3.87;;
19897;SDS011;10111;50.814;4.572;2023-07-31T05:40:14;7.33;;;3.93;;
19897;SDS011;10111;50.814;4.572;2023-07-31T05:42:40;10.60;;;4.20;;
19897;SDS011;10111;50.814;4.572;2023-07-31T05:45:06;9.80;;;3.80;;
19897;SDS011;10111;50.814;4.572;2023-07-31T05:47:32;4.57;;;3.57;;
19897;SDS011;10111;50.814;4.572;2023-07-31T05:49:57;4.97;;;3.40;;
19897;SDS011;10111;50.814;4.572;2023-07-31T05:52:23;8.77;;;4.53;;
19897;SDS011;10111;50.814;4.572;2023-07-31T05:54:49;8.87;;;3.93;;
19897;SDS011;10111;50.814;4.572;2023-07-31T05:57:15;6.97;;;3.70;;
19897;SDS011;10111;50.814;4.572;2023-07-31T05:59:41;5.17;;;3.70;;
19897;SDS011;10111;50.814;4.572;2023-07-31T06:02:06;7.27;;;3.37;;
19897;SDS011;10111;50.814;4.572;2023-07-31T06:04:32;7.47;;;3.93;;
19897;SDS011;10111;50.814;4.572;2023-07-31T06:06:58;7.83;;;4.23;;
19897;SDS011;10111;50.814;4.572;2023-07-31T06:09:24;7.90;;;4.10;;
19897;SDS011;10111;50.814;4.572;2023-07-31T06:11:50;5.67;;;3.70;;
19897;SDS011;10111;50.814;4.572;2023-07-31T06:14:16;4.10;;;3.37;;
19897;SDS011;10111;50.814;4.572;2023-07-31T06:16:42;6.20;;;4.33;;
19897;SDS011;10111;50.814;4.572;2023-07-31T06:19:09;6.33;;;3.83;;
19897;SDS011;10111;50.814;4.572;2023-07-31T06:21:35;12.23;;;4.63;;
19897;SDS011;10111;50.814;4.572;2023-07-31T06:24:02;6.63;;;4.00;;
19897;SDS011;10111;50.814;4.572;2023-07-31T06:26:28;6.67;;;4.53;;
19897;SDS011;10111;50.814;4.572;2023-07-31T06:28:54;5.80;;;3.83;;
19897;SDS011;10111;50.814;4.572;2023-07-31T06:31:20;8.50;;;3.93;;
19897;SDS011;10111;50.814;4.572;2023-07-31T06:33:48;8.20;;;3.80;;
19897;SDS011;10111;50.814;4.572;2023-07-31T06:36:17;4.77;;;4.20;;
19897;SDS011;10111;50.814;4.572;2023-07-31T06:38:43;9.40;;;3.97;;
19897;SDS011;10111;50.814;4.572;2023-07-31T06:41:09;9.33;;;4.27;;
19897;SDS011;10111;50.814;4.572;2023-07-31T06:43:35;8.23;;;3.83;;
19897;SDS011;10111;50.814;4.572;2023-07-31T06:46:05;6.93;;;3.70;;
19897;SDS011;10111;50.814;4.572;2023-07-31T06:48:31;7.47;;;4.30;;
19897;SDS011;10111;50.814;4.572;2023-07-31T06:50:58;7.40;;;4.00;;
19897;SDS011;10111;50.814;4.572;2023-07-31T06:53:23;6.00;;;4.10;;
19897;SDS011;10111;50.814;4.572;2023-07-31T06:55:49;6.13;;;4.03;;
19897;SDS011;10111;50.814;4.572;2023-07-31T06:58:16;7.03;;;3.77;;
19897;SDS011;10111;50.814;4.572;2023-07-31T07:00:42;5.43;;;4.20;;
19897;SDS011;10111;50.814;4.572;2023-07-31T07:03:08;6.60;;;3.53;;
19897;SDS011;10111;50.814;4.572;2023-07-31T07:05:34;6.07;;;3.80;;
19897;SDS011;10111;50.814;4.572;2023-07-31T07:07:59;6.87;;;3.73;;
19897;SDS011;10111;50.814;4.572;2023-07-31T07:10:25;4.57;;;3.50;;
19897;SDS011;10111;50.814;4.572;2023-07-31T07:12:51;7.23;;;3.93;;
19897;SDS011;10111;50.814;4.572;2023-07-31T07:15:16;6.30;;;3.90;;
19897;SDS011;10111;50.814;4.572;2023-07-31T07:17:42;8.73;;;3.60;;
19897;SDS011;10111;50.814;4.572;2023-07-31T07:20:08;7.57;;;4.80;;
19897;SDS011;10111;50.814;4.572;2023-07-31T07:22:34;6.43;;;4.40;;
19897;SDS011;10111;50.814;4.572;2023-07-31T07:24:59;6.93;;;3.37;;
19897;SDS011;10111;50.814;4.572;2023-07-31T07:27:25;4.80;;;3.40;;
19897;SDS011;10111;50.814;4.572;2023-07-31T07:29:51;6.00;;;4.83;;
19897;SDS011;10111;50.814;4.572;2023-07-31T07:32:20;8.60;;;3.83;;
19897;SDS011;10111;50.814;4.572;2023-07-31T07:34:46;7.40;;;3.47;;
19897;SDS011;10111;50.814;4.572;2023-07-31T07:37:13;5.33;;;4.13;;
19897;SDS011;10111;50.814;4.572;2023-07-31T07:39:38;7.07;;;3.80;;
19897;SDS011;10111;50.814;4.572;2023-07-31T07:42:04;7.20;;;3.60;;
19897;SDS011;10111;50.814;4.572;2023-07-31T07:44:30;7.07;;;3.27;;
19897;SDS011;10111;50.814;4.572;2023-07-31T07:46:55;4.93;;;3.10;;
19897;SDS011;10111;50.814;4.572;2023-07-31T07:49:21;5.97;;;3.43;;
19897;SDS011;10111;50.814;4.572;2023-07-31T07:51:49;6.17;;;3.20;;
19897;SDS011;10111;50.814;4.572;2023-07-31T07:54:15;3.30;;;2.83;;
19897;SDS011;10111;50.814;4.572;2023-07-31T07:56:46;4.33;;;2.93;;
19897;SDS011;10111;50.814;4.572;2023-07-31T07:59:11;4.03;;;2.50;;
19897;SDS011;10111;50.814;4.572;2023-07-31T08:01:37;5.57;;;3.23;;
19897;SDS011;10111;50.814;4.572;2023-07-31T08:04:03;8.20;;;3.10;;
19897;SDS011;10111;50.814;4.572;2023-07-31T08:06:28;5.00;;;2.87;;
19897;SDS011;10111;50.814;4.572;2023-07-31T08:08:55;7.93;;;3.20;;
19897;SDS011;10111;50.814;4.572;2023-07-31T08:11:21;5.13;;;3.03;;
19897;SDS011;10111;50.814;4.572;2023-07-31T08:13:48;5.57;;;3.33;;
19897;SDS011;10111;50.814;4.572;2023-07-31T08:16:14;4.37;;;2.47;;
19897;SDS011;10111;50.814;4.572;2023-07-31T08:18:40;6.87;;;2.93;;
19897;SDS011;10111;50.814;4.572;2023-07-31T08:21:07;6.43;;;2.67;;
19897;SDS011;10111;50.814;4.572;2023-07-31T08:23:33;3.37;;;2.73;;
19897;SDS011;10111;50.814;4.572;2023-07-31T08:25:59;7.77;;;2.53;;
19897;SDS011;10111;50.814;4.572;2023-07-31T08:28:24;6.93;;;3.33;;
19897;SDS011;10111;50.814;4.572;2023-07-31T08:30:50;7.73;;;3.37;;
19897;SDS011;10111;50.814;4.572;2023-07-31T08:33:16;5.57;;;2.63;;
19897;SDS011;10111;50.814;4.572;2023-07-31T08:35:41;7.23;;;2.83;;
19897;SDS011;10111;50.814;4.572;2023-07-31T08:38:07;7.60;;;4.53;;
19897;SDS011;10111;50.814;4.572;2023-07-31T08:40:35;4.23;;;2.97;;
19897;SDS011;10111;50.814;4.572;2023-07-31T08:43:03;5.43;;;2.70;;
19897;SDS011;10111;50.814;4.572;2023-07-31T08:45:28;3.67;;;2.40;;
19897;SDS011;10111;50.814;4.572;2023-07-31T08:47:55;6.00;;;2.60;;
19897;SDS011;10111;50.814;4.572;2023-07-31T08:50:22;4.40;;;2.50;;
19897;SDS011;10111;50.814;4.572;2023-07-31T08:52:48;4.13;;;2.40;;
19897;SDS011;10111;50.814;4.572;2023-07-31T08:55:15;7.90;;;2.73;;
19897;SDS011;10111;50.814;4.572;2023-07-31T08:57:41;3.77;;;2.90;;
19897;SDS011;10111;50.814;4.572;2023-07-31T09:00:08;4.63;;;2.87;;
19897;SDS011;10111;50.814;4.572;2023-07-31T09:02:41;5.00;;;2.20;;
19897;SDS011;10111;50.814;4.572;2023-07-31T09:05:08;2.90;;;2.27;;
19897;SDS011;10111;50.814;4.572;2023-07-31T09:07:35;6.90;;;3.10;;
19897;SDS011;10111;50.814;4.572;2023-07-31T09:10:02;4.03;;;2.40;;
19897;SDS011;10111;50.814;4.572;2023-07-31T09:12:28;4.93;;;2.80;;
19897;SDS011;10111;50.814;4.572;2023-07-31T09:14:56;4.83;;;3.07;;
19897;SDS011;10111;50.814;4.572;2023-07-31T09:20:23;3.33;;;2.40;;
19897;SDS011;10111;50.814;4.572;2023-07-31T09:22:49;4.33;;;3.23;;
19897;SDS011;10111;50.814;4.572;2023-07-31T09:27:47;6.10;;;3.23;;
19897;SDS011;10111;50.814;4.572;2023-07-31T09:30:15;6.03;;;3.40;;
19897;SDS011;10111;50.814;4.572;2023-07-31T09:32:41;4.47;;;2.47;;
19897;SDS011;10111;50.814;4.572;2023-07-31T09:35:21;4.03;;;2.80;;
19897;SDS011;10111;50.814;4.572;2023-07-31T09:37:49;4.73;;;3.30;;
19897;SDS011;10111;50.814;4.572;2023-07-31T09:40:24;8.47;;;2.90;;
19897;SDS011;10111;50.814;4.572;2023-07-31T09:42:55;4.13;;;2.97;;
19897;SDS011;10111;50.814;4.572;2023-07-31T09:45:25;7.03;;;3.53;;
19897;SDS011;10111;50.814;4.572;2023-07-31T09:47:51;4.23;;;2.80;;
19897;SDS011;10111;50.814;4.572;2023-07-31T09:50:17;7.67;;;3.57;;
19897;SDS011;10111;50.814;4.572;2023-07-31T09:52:43;7.13;;;4.03;;
19897;SDS011;10111;50.814;4.572;2023-07-31T09:55:09;5.57;;;3.40;;
19897;SDS011;10111;50.814;4.572;2023-07-31T09:57:39;5.10;;;3.50;;
19897;SDS011;10111;50.814;4.572;2023-07-31T10:00:07;7.80;;;4.57;;
19897;SDS011;10111;50.814;4.572;2023-07-31T10:02:34;7.47;;;4.00;;
19897;SDS011;10111;50.814;4.572;2023-07-31T10:05:02;7.13;;;3.67;;
19897;SDS011;10111;50.814;4.572;2023-07-31T10:07:28;5.40;;;3.60;;
19897;SDS011;10111;50.814;4.572;2023-07-31T10:09:57;10.87;;;4.20;;
19897;SDS011;10111;50.814;4.572;2023-07-31T10:12:25;7.70;;;4.00;;
19897;SDS011;10111;50.814;4.572;2023-07-31T10:14:55;6.20;;;3.83;;
19897;SDS011;10111;50.814;4.572;2023-07-31T10:17:21;5.67;;;4.53;;
19897;SDS011;10111;50.814;4.572;2023-07-31T10:19:48;6.73;;;4.30;;
19897;SDS011;10111;50.814;4.572;2023-07-31T10:22:15;8.70;;;4.93;;
19897;SDS011;10111;50.814;4.572;2023-07-31T10:24:44;8.23;;;4.23;;
19897;SDS011;10111;50.814;4.572;2023-07-31T10:27:11;8.83;;;5.23;;
19897;SDS011;10111;50.814;4.572;2023-07-31T10:29:41;6.37;;;4.37;;
19897;SDS011;10111;50.814;4.572;2023-07-31T10:32:08;10.50;;;4.83;;
19897;SDS011;10111;50.814;4.572;2023-07-31T10:34:36;8.03;;;4.67;;
19897;SDS011;10111;50.814;4.572;2023-07-31T10:37:24;9.03;;;4.97;;
19897;SDS011;10111;50.814;4.572;2023-07-31T10:42:44;8.20;;;4.43;;
19897;SDS011;10111;50.814;4.572;2023-07-31T10:47:59;7.83;;;4.23;;
19897;SDS011;10111;50.814;4.572;2023-07-31T10:50:28;8.57;;;4.70;;
19897;SDS011;10111;50.814;4.572;2023-07-31T10:52:57;6.20;;;4.07;;
19897;SDS011;10111;50.814;4.572;2023-07-31T10:58:26;6.30;;;4.37;;
19897;SDS011;10111;50.814;4.572;2023-07-31T11:00:55;9.37;;;4.40;;
19897;SDS011;10111;50.814;4.572;2023-07-31T11:03:24;5.63;;;4.07;;
19897;SDS011;10111;50.814;4.572;2023-07-31T11:06:01;7.97;;;4.20;;
19897;SDS011;10111;50.814;4.572;2023-07-31T11:08:31;6.50;;;4.03;;
19897;SDS011;10111;50.814;4.572;2023-07-31T11:13:27;10.53;;;5.27;;
19897;SDS011;10111;50.814;4.572;2023-07-31T11:16:06;8.00;;;4.13;;
19897;SDS011;10111;50.814;4.572;2023-07-31T11:18:32;7.17;;;4.00;;
19897;SDS011;10111;50.814;4.572;2023-07-31T11:20:57;5.20;;;3.57;;
19897;SDS011;10111;50.814;4.572;2023-07-31T11:23:23;9.43;;;4.70;;
19897;SDS011;10111;50.814;4.572;2023-07-31T11:25:49;7.93;;;4.87;;
19897;SDS011;10111;50.814;4.572;2023-07-31T11:28:16;10.50;;;4.80;;
19897;SDS011;10111;50.814;4.572;2023-07-31T11:30:42;8.10;;;4.53;;
19897;SDS011;10111;50.814;4.572;2023-07-31T11:33:10;5.40;;;4.87;;
19897;SDS011;10111;50.814;4.572;2023-07-31T11:35:43;7.77;;;5.00;;
19897;SDS011;10111;50.814;4.572;2023-07-31T11:38:23;10.20;;;5.17;;
19897;SDS011;10111;50.814;4.572;2023-07-31T11:40:50;13.33;;;5.27;;
19897;SDS011;10111;50.814;4.572;2023-07-31T11:43:17;5.37;;;3.90;;
19897;SDS011;10111;50.814;4.572;2023-07-31T11:45:53;6.50;;;3.67;;
19897;SDS011;10111;50.814;4.572;2023-07-31T11:48:22;7.07;;;3.83;;
19897;SDS011;10111;50.814;4.572;2023-07-31T11:50:50;7.43;;;4.27;;
19897;SDS011;10111;50.814;4.572;2023-07-31T11:53:19;8.90;;;4.07;;
19897;SDS011;10111;50.814;4.572;2023-07-31T11:55:50;7.47;;;4.10;;
19897;SDS011;10111;50.814;4.572;2023-07-31T11:58:16;6.63;;;4.00;;
19897;SDS011;10111;50.814;4.572;2023-07-31T12:00:44;5.40;;;3.73;;
19897;SDS011;10111;50.814;4.572;2023-07-31T12:03:11;7.00;;;3.63;;
19897;SDS011;10111;50.814;4.572;2023-07-31T12:05:37;8.07;;;3.90;;
19897;SDS011;10111;50.814;4.572;2023-07-31T12:08:05;6.77;;;3.80;;
19897;SDS011;10111;50.814;4.572;2023-07-31T12:10:34;7.77;;;3.70;;
19897;SDS011;10111;50.814;4.572;2023-07-31T12:13:01;5.87;;;3.60;;
19897;SDS011;10111;50.814;4.572;2023-07-31T12:18:05;9.00;;;3.57;;
19897;SDS011;10111;50.814;4.572;2023-07-31T12:20:32;9.27;;;3.87;;
19897;SDS011;10111;50.814;4.572;2023-07-31T12:22:58;7.37;;;4.00;;
19897;SDS011;10111;50.814;4.572;2023-07-31T12:25:28;5.90;;;3.87;;
19897;SDS011;10111;50.814;4.572;2023-07-31T12:27:56;9.80;;;4.20;;
19897;SDS011;10111;50.814;4.572;2023-07-31T12:30:29;8.17;;;4.50;;
19897;SDS011;10111;50.814;4.572;2023-07-31T12:32:57;8.03;;;4.00;;
19897;SDS011;10111;50.814;4.572;2023-07-31T12:35:22;10.97;;;4.10;;
19897;SDS011;10111;50.814;4.572;2023-07-31T12:37:48;8.33;;;4.30;;
19897;SDS011;10111;50.814;4.572;2023-07-31T12:40:14;8.00;;;4.13;;
19897;SDS011;10111;50.814;4.572;2023-07-31T12:42:40;9.80;;;4.47;;
19897;SDS011;10111;50.814;4.572;2023-07-31T12:45:06;7.00;;;4.03;;
19897;SDS011;10111;50.814;4.572;2023-07-31T12:47:32;7.67;;;4.87;;
19897;SDS011;10111;50.814;4.572;2023-07-31T12:49:58;5.50;;;4.00;;
19897;SDS011;10111;50.814;4.572;2023-07-31T12:52:24;8.77;;;4.63;;
19897;SDS011;10111;50.814;4.572;2023-07-31T12:54:49;6.07;;;4.13;;
19897;SDS011;10111;50.814;4.572;2023-07-31T12:57:15;6.63;;;3.83;;
19897;SDS011;10111;50.814;4.572;2023-07-31T12:59:41;10.07;;;3.97;;
19897;SDS011;10111;50.814;4.572;2023-07-31T13:02:06;6.87;;;4.37;;
19897;SDS011;10111;50.814;4.572;2023-07-31T13:04:32;8.30;;;4.60;;
19897;SDS011;10111;50.814;4.572;2023-07-31T13:06:57;6.33;;;3.77;;
19897;SDS011;10111;50.814;4.572;2023-07-31T13:09:23;9.57;;;4.40;;
19897;SDS011;10111;50.814;4.572;2023-07-31T13:11:49;10.63;;;4.53;;
19897;SDS011;10111;50.814;4.572;2023-07-31T13:14:14;9.43;;;3.83;;
19897;SDS011;10111;50.814;4.572;2023-07-31T13:16:40;8.50;;;4.13;;
19897;SDS011;10111;50.814;4.572;2023-07-31T13:19:06;8.10;;;4.67;;
19897;SDS011;10111;50.814;4.572;2023-07-31T13:21:31;10.63;;;5.13;;
19897;SDS011;10111;50.814;4.572;2023-07-31T13:24:00;6.40;;;3.47;;
19897;SDS011;10111;50.814;4.572;2023-07-31T13:26:26;7.07;;;3.90;;
19897;SDS011;10111;50.814;4.572;2023-07-31T13:28:51;5.63;;;3.33;;
19897;SDS011;10111;50.814;4.572;2023-07-31T13:31:17;11.53;;;3.43;;
19897;SDS011;10111;50.814;4.572;2023-07-31T13:33:43;4.37;;;3.30;;
19897;SDS011;10111;50.814;4.572;2023-07-31T13:36:08;5.20;;;3.07;;
19897;SDS011;10111;50.814;4.572;2023-07-31T13:38:34;4.60;;;2.90;;
19897;SDS011;10111;50.814;4.572;2023-07-31T13:41:00;5.83;;;3.40;;
19897;SDS011;10111;50.814;4.572;2023-07-31T13:43:26;10.53;;;3.73;;
19897;SDS011;10111;50.814;4.572;2023-07-31T13:45:51;5.10;;;2.70;;
19897;SDS011;10111;50.814;4.572;2023-07-31T13:48:17;3.97;;;3.10;;
19897;SDS011;10111;50.814;4.572;2023-07-31T13:50:42;4.37;;;2.83;;
19897;SDS011;10111;50.814;4.572;2023-07-31T13:53:08;4.00;;;2.70;;
19897;SDS011;10111;50.814;4.572;2023-07-31T13:55:34;5.57;;;2.90;;
19897;SDS011;10111;50.814;4.572;2023-07-31T13:57:59;8.10;;;2.60;;
19897;SDS011;10111;50.814;4.572;2023-07-31T14:00:25;5.03;;;3.20;;
19897;SDS011;10111;50.814;4.572;2023-07-31T14:02:50;7.33;;;2.90;;
19897;SDS011;10111;50.814;4.572;2023-07-31T14:05:16;6.13;;;3.60;;
19897;SDS011;10111;50.814;4.572;2023-07-31T14:07:42;3.70;;;2.87;;
19897;SDS011;10111;50.814;4.572;2023-07-31T14:10:07;3.67;;;2.87;;
19897;SDS011;10111;50.814;4.572;2023-07-31T14:12:33;5.57;;;3.00;;
19897;SDS011;10111;50.814;4.572;2023-07-31T14:14:59;5.60;;;2.87;;
19897;SDS011;10111;50.814;4.572;2023-07-31T14:17:25;5.60;;;2.30;;
19897;SDS011;10111;50.814;4.572;2023-07-31T14:19:50;4.53;;;2.93;;
19897;SDS011;10111;50.814;4.572;2023-07-31T14:22:26;6.27;;;2.43;;
19897;SDS011;10111;50.814;4.572;2023-07-31T14:24:53;3.03;;;2.13;;
19897;SDS011;10111;50.814;4.572;2023-07-31T14:27:19;4.47;;;2.80;;
19897;SDS011;10111;50.814;4.572;2023-07-31T14:29:44;5.53;;;3.63;;
19897;SDS011;10111;50.814;4.572;2023-07-31T14:32:10;6.87;;;3.30;;
19897;SDS011;10111;50.814;4.572;2023-07-31T14:34:35;3.80;;;2.87;;
19897;SDS011;10111;50.814;4.572;2023-07-31T14:37:01;4.20;;;2.60;;
19897;SDS011;10111;50.814;4.572;2023-07-31T14:39:27;6.17;;;3.00;;
19897;SDS011;10111;50.814;4.572;2023-07-31T14:41:52;5.03;;;3.27;;
19897;SDS011;10111;50.814;4.572;2023-07-31T14:44:18;5.43;;;3.17;;
19897;SDS011;10111;50.814;4.572;2023-07-31T14:46:44;5.60;;;3.20;;
19897;SDS011;10111;50.814;4.572;2023-07-31T14:49:09;3.70;;;2.70;;
19897;SDS011;10111;50.814;4.572;2023-07-31T14:51:35;5.83;;;3.00;;
19897;SDS011;10111;50.814;4.572;2023-07-31T14:54:01;7.07;;;3.30;;
19897;SDS011;10111;50.814;4.572;2023-07-31T14:56:26;3.00;;;2.80;;
19897;SDS011;10111;50.814;4.572;2023-07-31T14:58:53;5.37;;;2.57;;
19897;SDS011;10111;50.814;4.572;2023-07-31T15:01:18;3.73;;;2.20;;
19897;SDS011;10111;50.814;4.572;2023-07-31T15:03:44;2.30;;;2.00;;
19897;SDS011;10111;50.814;4.572;2023-07-31T15:06:10;3.03;;;2.20;;
19897;SDS011;10111;50.814;4.572;2023-07-31T15:08:37;2.87;;;2.13;;
19897;SDS011;10111;50.814;4.572;2023-07-31T15:11:03;3.10;;;1.83;;